createdAt,value
2023-02-15T00:00:31.661Z,100870.02
2023-02-15T00:03:00.075Z,100872.95
2023-02-15T00:05:28.169Z,100879.14
2023-02-15T00:07:57.322Z,100881.51
2023-02-15T00:10:25.458Z,100878.85
2023-02-15T00:12:55.706Z,100881.61
2023-02-15T00:15:25.621Z,100886.33
2023-02-15T00:17:55.747Z,100890.70
2023-02-15T00:20:24.237Z,100893.67
2023-02-15T00:22:52.912Z,100891.35
2023-02-15T00:25:21.939Z,100888.64
2023-02-15T00:27:50.387Z,100892.14
2023-02-15T00:30:19.176Z,100887.50
2023-02-15T00:32:49.073Z,100890.79
2023-02-15T00:35:18.902Z,100888.34
2023-02-15T00:37:47.382Z,100889.56
2023-02-15T00:40:15.567Z,100888.84
2023-02-15T00:42:43.952Z,100888.77
2023-02-15T00:45:12.366Z,100887.00
2023-02-15T00:47:41.517Z,100891.64
2023-02-15T00:50:10.769Z,100886.38
2023-02-15T00:52:39.535Z,100888.73
2023-02-15T00:55:08.229Z,100885.51
2023-02-15T00:57:36.398Z,100882.17
2023-02-15T01:00:10.015Z,100883.48
2023-02-15T01:02:38.567Z,100884.83
2023-02-15T01:12:43.379Z,100885.88
2023-02-15T01:15:11.509Z,100887.68
2023-02-15T01:17:40.097Z,100893.02
2023-02-15T01:20:09.015Z,100893.70
2023-02-15T01:22:37.672Z,100895.41
2023-02-15T01:25:06.812Z,100898.15
2023-02-15T01:27:34.965Z,100892.62
2023-02-15T01:30:12.298Z,100895.05
2023-02-15T01:32:41.379Z,100895.58
2023-02-15T01:35:11.561Z,100896.97
2023-02-15T01:37:40.656Z,100894.54
2023-02-15T01:40:13.239Z,100896.27
2023-02-15T01:42:41.923Z,100899.73
2023-02-15T01:45:16.132Z,100898.37
2023-02-15T01:47:46.765Z,100902.16
2023-02-15T01:50:31.070Z,100900.80
2023-02-15T01:53:26.036Z,100901.66
2023-02-15T01:56:08.914Z,100902.55
2023-02-15T01:58:37.228Z,100900.02
2023-02-15T02:01:05.516Z,100905.25
2023-02-15T02:04:08.387Z,100901.84
2023-02-15T02:06:37.171Z,100904.48
2023-02-15T02:09:05.268Z,100902.83
2023-02-15T02:11:35.457Z,100902.71
2023-02-15T02:14:03.570Z,100904.33
2023-02-15T02:16:37.761Z,100912.30
2023-02-15T02:19:34.389Z,100916.29
2023-02-15T02:22:25.419Z,100917.18
2023-02-15T02:25:12.021Z,100919.62
2023-02-15T02:28:02.239Z,100925.02
2023-02-15T02:30:49.000Z,100929.55
2023-02-15T02:33:29.683Z,100924.02
2023-02-15T02:35:59.562Z,100932.90
2023-02-15T02:38:33.337Z,100933.95
2023-02-15T02:41:24.643Z,100933.11
2023-02-15T02:43:56.293Z,100931.73
2023-02-15T02:46:31.649Z,100937.98
2023-02-15T02:49:02.552Z,100939.38
2023-02-15T02:51:32.784Z,100941.11
2023-02-15T02:54:04.129Z,100945.93
2023-02-15T02:56:37.655Z,100942.32
2023-02-15T02:59:20.860Z,100946.66
2023-02-15T03:01:55.029Z,100942.02
2023-02-15T03:04:29.653Z,100949.14
2023-02-15T03:07:00.330Z,100958.14
2023-02-15T03:17:08.057Z,100954.13
2023-02-15T03:19:37.813Z,100958.35
2023-02-15T03:22:16.615Z,100957.84
2023-02-15T03:25:02.887Z,100958.02
2023-02-15T03:27:42.662Z,100960.65
2023-02-15T03:30:12.005Z,100967.48
2023-02-15T03:32:42.297Z,100968.89
2023-02-15T03:35:10.581Z,100969.83
2023-02-15T03:37:40.787Z,100975.06
2023-02-15T03:40:48.385Z,100974.76
2023-02-15T03:43:27.573Z,100968.94
2023-02-15T03:45:57.966Z,100970.35
2023-02-15T03:48:53.875Z,100972.98
2023-02-15T03:51:36.583Z,100979.59
2023-02-15T03:54:06.747Z,100985.29
2023-02-15T03:56:38.979Z,100987.37
2023-02-15T03:59:26.425Z,100985.81
2023-02-15T04:02:04.935Z,100986.00
2023-02-15T04:04:36.989Z,100996.23
2023-02-15T04:07:07.083Z,100994.89
2023-02-15T04:09:54.432Z,100995.08
2023-02-15T04:12:23.359Z,100999.45
2023-02-15T04:15:10.220Z,100998.80
2023-02-15T04:17:39.134Z,100994.52
2023-02-15T04:20:28.274Z,101005.78
2023-02-15T04:23:16.552Z,101011.38
2023-02-15T04:25:45.135Z,101017.29
2023-02-15T04:28:13.530Z,101019.73
2023-02-15T04:30:42.633Z,101020.45
2023-02-15T04:33:11.859Z,101019.76
2023-02-15T04:35:40.069Z,101026.17
2023-02-15T04:45:52.242Z,101035.91
2023-02-15T04:48:20.429Z,101039.98
2023-02-15T04:50:48.772Z,101048.31
2023-02-15T04:53:18.624Z,101053.06
2023-02-15T04:55:46.864Z,101046.73
2023-02-15T04:58:15.142Z,101046.90
2023-02-15T05:00:44.282Z,101054.50
2023-02-15T05:03:12.619Z,101056.17
2023-02-15T05:05:41.854Z,101060.04
2023-02-15T05:08:10.214Z,101057.50
2023-02-15T05:10:38.987Z,101060.54
2023-02-15T05:13:07.074Z,101063.58
2023-02-15T05:15:37.693Z,101070.73
2023-02-15T05:18:08.308Z,101077.38
2023-02-15T05:20:36.425Z,101077.60
2023-02-15T05:23:04.662Z,101080.21
2023-02-15T05:25:52.924Z,101084.55
2023-02-15T05:28:23.022Z,101082.33
2023-02-15T05:31:02.287Z,101083.23
2023-02-15T05:33:32.743Z,101082.73
2023-02-15T05:36:02.273Z,101084.64
2023-02-15T05:38:31.350Z,101088.43
2023-02-15T05:40:59.943Z,101088.61
2023-02-15T05:43:27.959Z,101083.08
2023-02-15T05:45:56.383Z,101086.38
2023-02-15T05:48:26.062Z,101094.10
2023-02-15T05:51:11.287Z,101093.70
2023-02-15T05:53:41.253Z,101088.61
2023-02-15T05:56:10.292Z,101091.35
2023-02-15T05:58:42.335Z,101086.98
2023-02-15T06:01:15.492Z,101087.27
2023-02-15T06:03:44.619Z,101089.23
2023-02-15T06:06:13.102Z,101087.45
2023-02-15T06:08:41.554Z,101096.52
2023-02-15T06:11:09.869Z,101101.79
2023-02-15T06:13:39.033Z,101099.45
2023-02-15T06:16:08.027Z,101108.23
2023-02-15T06:18:36.662Z,101106.80
2023-02-15T06:21:05.175Z,101106.45
2023-02-15T06:23:34.768Z,101104.51
2023-02-15T06:26:03.238Z,101103.62
2023-02-15T06:28:31.771Z,101108.22
2023-02-15T06:31:00.558Z,101109.05
2023-02-15T06:33:31.598Z,101113.48
2023-02-15T06:36:00.109Z,101117.73
2023-02-15T06:38:28.678Z,101114.01
2023-02-15T06:40:57.589Z,101114.13
2023-02-15T06:43:26.037Z,101118.92
2023-02-15T06:45:54.544Z,101122.53
2023-02-15T06:48:22.796Z,101128.27
2023-02-15T06:50:51.273Z,101131.06
2023-02-15T06:53:19.563Z,101133.30
2023-02-15T06:55:49.463Z,101136.09
2023-02-15T06:58:19.794Z,101137.65
2023-02-15T07:00:48.204Z,101147.17
2023-02-15T07:03:17.060Z,101140.98
2023-02-15T07:05:46.673Z,101141.92
2023-02-15T07:08:14.839Z,101144.70
2023-02-15T07:10:46.191Z,101142.24
2023-02-15T07:13:14.874Z,101142.88
2023-02-15T07:15:49.381Z,101143.20
2023-02-15T07:18:18.197Z,101141.21
2023-02-15T07:20:48.787Z,101144.77
2023-02-15T07:23:19.915Z,101139.39
2023-02-15T07:25:48.445Z,101138.09
2023-02-15T07:28:17.471Z,101139.70
2023-02-15T07:30:45.684Z,101139.40
2023-02-15T07:33:28.100Z,101140.77
2023-02-15T07:36:02.291Z,101139.23
2023-02-15T07:38:35.148Z,101137.90
2023-02-15T07:41:04.886Z,101137.64
2023-02-15T07:43:38.018Z,101146.10
2023-02-15T07:46:11.081Z,101139.98
2023-02-15T07:48:40.470Z,101138.30
2023-02-15T07:51:10.030Z,101143.12
2023-02-15T07:53:41.327Z,101141.13
2023-02-15T07:56:13.580Z,101146.26
2023-02-15T07:58:52.382Z,101144.86
2023-02-15T08:01:21.460Z,101143.40
2023-02-15T08:03:50.474Z,101143.87
2023-02-15T08:06:18.974Z,101145.92
2023-02-15T08:08:49.368Z,101144.15
2023-02-15T08:11:27.107Z,101146.35
2023-02-15T08:13:59.041Z,101151.73
2023-02-15T08:16:30.148Z,101150.96
2023-02-15T08:18:59.691Z,101149.74
2023-02-15T08:21:29.293Z,101150.58
2023-02-15T08:23:58.502Z,101147.28
2023-02-15T08:26:27.806Z,101149.68
2023-02-15T08:28:56.301Z,101150.67
2023-02-15T08:31:24.593Z,101145.64
2023-02-15T08:33:54.272Z,101143.06
2023-02-15T08:36:35.791Z,101142.93
2023-02-15T08:39:05.917Z,101142.50
2023-02-15T08:41:38.690Z,101149.66
2023-02-15T08:44:08.578Z,101145.77
2023-02-15T08:46:38.964Z,101145.42
2023-02-15T08:49:07.676Z,101144.16
2023-02-15T08:51:37.629Z,101142.96
2023-02-15T08:54:10.072Z,101148.75
2023-02-15T08:56:39.942Z,101145.69
2023-02-15T08:59:11.852Z,101143.80
2023-02-15T09:01:40.666Z,101142.30
2023-02-15T09:04:14.277Z,101140.77
2023-02-15T09:06:46.969Z,101140.94
2023-02-15T09:09:17.808Z,101140.81
2023-02-15T09:11:47.770Z,101140.89
2023-02-15T09:14:18.097Z,101140.04
2023-02-15T09:16:49.853Z,101135.63
2023-02-15T09:19:19.138Z,101133.29
2023-02-15T09:21:47.785Z,101141.13
2023-02-15T09:24:18.201Z,101136.94
2023-02-15T09:26:52.884Z,101151.25
2023-02-15T09:29:23.857Z,101147.27
2023-02-15T09:31:52.237Z,101141.54
2023-02-15T09:34:22.233Z,101140.23
2023-02-15T09:36:51.223Z,101147.08
2023-02-15T09:39:27.158Z,101140.92
2023-02-15T09:42:01.195Z,101142.25
2023-02-15T09:44:32.465Z,101140.86
2023-02-15T09:47:42.518Z,101142.91
2023-02-15T09:50:38.727Z,101137.05
2023-02-15T09:53:28.715Z,101144.80
2023-02-15T09:55:56.878Z,101138.93
2023-02-15T09:58:34.137Z,101141.11
2023-02-15T10:01:26.201Z,101144.94
2023-02-15T10:04:12.939Z,101141.94
2023-02-15T10:06:45.636Z,101138.84
2023-02-15T10:09:32.698Z,101141.59
2023-02-15T10:12:03.981Z,101137.02
2023-02-15T10:14:41.704Z,101138.84
2023-02-15T10:17:27.307Z,101143.86
2023-02-15T10:27:34.305Z,101142.14
2023-02-15T10:30:32.649Z,101138.38
2023-02-15T10:33:03.208Z,101140.98
2023-02-15T10:35:37.415Z,101141.72
2023-02-15T10:38:31.038Z,101141.81
2023-02-15T10:41:25.583Z,101139.77
2023-02-15T10:44:13.032Z,101139.56
2023-02-15T10:47:04.729Z,101147.15
2023-02-15T10:50:04.770Z,101149.00
2023-02-15T10:52:50.156Z,101149.52
2023-02-15T10:55:38.599Z,101147.31
2023-02-15T10:58:38.027Z,101149.52
2023-02-15T11:01:22.405Z,101151.01
2023-02-15T11:04:17.469Z,101157.98
2023-02-15T11:06:52.388Z,101155.34
2023-02-15T11:09:22.707Z,101153.85
2023-02-15T11:11:53.030Z,101153.38
2023-02-15T11:14:44.889Z,101158.31
2023-02-15T11:17:16.183Z,101157.89
2023-02-15T11:19:58.996Z,101163.50
2023-02-15T11:22:27.212Z,101161.66
2023-02-15T11:24:59.944Z,101160.11
2023-02-15T11:27:34.669Z,101164.11
2023-02-15T11:30:11.886Z,101160.79
2023-02-15T11:32:42.219Z,101173.25
2023-02-15T11:35:19.769Z,101171.19
2023-02-15T11:37:55.203Z,101178.02
2023-02-15T11:40:29.670Z,101179.86
2023-02-15T11:43:00.173Z,101180.89
2023-02-15T11:45:32.632Z,101184.67
2023-02-15T11:48:00.907Z,101189.13
2023-02-15T11:50:32.118Z,101191.65
2023-02-15T11:53:06.027Z,101195.71
2023-02-15T11:55:36.257Z,101193.19
2023-02-15T11:58:26.122Z,101196.10
2023-02-15T12:00:59.399Z,101199.65
2023-02-15T12:03:47.298Z,101199.66
2023-02-15T12:06:33.653Z,101203.99
2023-02-15T12:09:07.668Z,101209.30
2023-02-15T12:11:40.450Z,101209.03
2023-02-15T12:14:10.261Z,101208.02
2023-02-15T12:16:52.872Z,101215.59
2023-02-15T12:19:31.500Z,101219.59
2023-02-15T12:22:05.134Z,101223.30
2023-02-15T12:24:45.008Z,101217.77
2023-02-15T12:35:15.475Z,101230.41
2023-02-15T12:37:53.763Z,101227.69
2023-02-15T12:40:23.766Z,101230.61
2023-02-15T12:42:52.149Z,101229.58
2023-02-15T12:45:28.915Z,101228.35
2023-02-15T12:48:20.396Z,101235.61
2023-02-15T12:50:54.813Z,101233.70
2023-02-15T12:53:31.773Z,101232.58
2023-02-15T12:56:05.249Z,101227.67
2023-02-15T12:58:38.451Z,101229.30
2023-02-15T13:01:22.403Z,101232.23
2023-02-15T13:03:59.550Z,101231.61
2023-02-15T13:06:29.341Z,101236.98
2023-02-15T13:09:09.496Z,101232.02
2023-02-15T13:11:40.683Z,101236.52
2023-02-15T13:14:20.143Z,101237.91
2023-02-15T13:16:50.190Z,101235.10
2023-02-15T13:19:23.079Z,101242.15
2023-02-15T13:21:53.336Z,101235.10
2023-02-15T13:24:28.189Z,101247.60
2023-02-15T13:27:13.121Z,101243.88
2023-02-15T13:29:45.115Z,101248.64
2023-02-15T13:32:16.265Z,101253.69
2023-02-15T13:34:44.641Z,101253.52
2023-02-15T13:37:51.393Z,101252.95
2023-02-15T13:40:23.926Z,101253.09
2023-02-15T13:43:19.502Z,101259.13
2023-02-15T13:46:03.740Z,101261.88
2023-02-15T13:48:48.319Z,101254.42
2023-02-15T13:51:22.783Z,101259.09
2023-02-15T13:54:03.667Z,101261.13
2023-02-15T13:56:41.923Z,101262.29
2023-02-15T13:59:14.702Z,101267.34
2023-02-15T14:01:52.177Z,101267.23
2023-02-15T14:04:48.325Z,101273.71
2023-02-15T14:07:34.748Z,101276.41
2023-02-15T14:10:28.625Z,101277.05
2023-02-15T14:12:56.814Z,101280.80
2023-02-15T14:15:33.760Z,101279.89
2023-02-15T14:18:32.294Z,101281.05
2023-02-15T14:21:22.133Z,101280.95
2023-02-15T14:23:59.220Z,101282.35
2023-02-15T14:26:33.562Z,101286.02
2023-02-15T14:29:20.224Z,101290.88
2023-02-15T14:31:52.474Z,101290.27
2023-02-15T14:34:56.349Z,101293.27
2023-02-15T14:38:02.380Z,101301.66
2023-02-15T14:41:03.584Z,101302.28
2023-02-15T14:43:57.404Z,101308.45
2023-02-15T14:46:28.962Z,101308.56
2023-02-15T14:48:58.869Z,101308.61
2023-02-15T14:51:48.861Z,101312.14
2023-02-15T14:54:17.045Z,101318.08
2023-02-15T14:56:46.470Z,101318.80
2023-02-15T14:59:20.092Z,101320.70
2023-02-15T15:02:31.881Z,101318.46
2023-02-15T15:12:37.170Z,101327.48
2023-02-15T15:15:05.832Z,101333.45
2023-02-15T15:17:34.541Z,101335.54
2023-02-15T15:20:15.739Z,101336.77
2023-02-15T15:22:45.022Z,101337.11
2023-02-15T15:26:10.765Z,101337.46
2023-02-15T15:28:39.095Z,101343.84
2023-02-15T15:31:30.477Z,101341.10
2023-02-15T15:34:16.756Z,101345.29
2023-02-15T15:36:53.991Z,101346.88
2023-02-15T15:39:44.702Z,101347.77
2023-02-15T15:42:28.421Z,101351.04
2023-02-15T15:45:21.710Z,101353.13
2023-02-15T15:48:16.702Z,101346.95
2023-02-15T15:50:44.788Z,101348.86
2023-02-15T15:53:22.314Z,101352.66
2023-02-15T15:55:52.090Z,101353.15
2023-02-15T15:58:20.107Z,101350.59
2023-02-15T16:00:50.727Z,101349.75
2023-02-15T16:03:24.691Z,101354.61
2023-02-15T16:05:56.727Z,101355.52
2023-02-15T16:08:38.762Z,101356.73
2023-02-15T16:11:28.205Z,101357.96
2023-02-15T16:13:56.630Z,101362.48
2023-02-15T16:16:29.766Z,101363.75
2023-02-15T16:19:00.905Z,101363.11
2023-02-15T16:21:33.047Z,101367.27
2023-02-15T16:24:11.187Z,101367.09
2023-02-15T16:27:10.331Z,101368.64
2023-02-15T16:29:39.214Z,101369.85
2023-02-15T16:32:21.515Z,101375.36
2023-02-15T16:35:03.530Z,101375.87
2023-02-15T16:37:35.502Z,101371.18
2023-02-15T16:40:04.354Z,101369.44
2023-02-15T16:42:33.335Z,101366.64
2023-02-15T16:45:09.216Z,101370.60
2023-02-15T16:47:44.981Z,101374.02
2023-02-15T16:50:38.991Z,101375.90
2023-02-15T16:53:08.462Z,101377.26
2023-02-15T16:55:43.013Z,101375.17
2023-02-15T16:58:16.975Z,101374.54
2023-02-15T17:00:46.059Z,101377.73
2023-02-15T17:03:14.695Z,101375.23
2023-02-15T17:05:48.788Z,101377.42
2023-02-15T17:08:27.516Z,101375.45
2023-02-15T17:11:12.867Z,101375.13
2023-02-15T17:14:03.724Z,101378.67
2023-02-15T17:16:45.974Z,101380.50
2023-02-15T17:19:24.720Z,101385.96
2023-02-15T17:22:04.980Z,101385.55
2023-02-15T17:24:41.536Z,101390.49
2023-02-15T17:27:18.072Z,101386.13
2023-02-15T17:29:49.707Z,101386.41
2023-02-15T17:32:23.472Z,101386.88
2023-02-15T17:34:51.707Z,101390.15
2023-02-15T17:37:31.491Z,101393.23
2023-02-15T17:40:01.505Z,101395.20
2023-02-15T17:42:30.500Z,101398.55
2023-02-15T17:44:58.900Z,101398.84
2023-02-15T17:47:30.356Z,101398.20
2023-02-15T17:50:07.409Z,101402.77
2023-02-15T17:52:38.882Z,101400.44
2023-02-15T17:55:35.226Z,101401.36
2023-02-15T17:58:06.161Z,101405.57
2023-02-15T18:00:56.805Z,101404.91
2023-02-15T18:03:45.005Z,101405.61
2023-02-15T18:06:32.287Z,101402.30
2023-02-15T18:09:19.772Z,101400.73
2023-02-15T18:11:51.314Z,101408.13
2023-02-15T18:14:20.206Z,101408.63
2023-02-15T18:16:48.743Z,101406.23
2023-02-15T18:19:27.567Z,101403.98
2023-02-15T18:21:57.988Z,101402.42
2023-02-15T18:24:26.785Z,101405.36
2023-02-15T18:26:55.076Z,101405.02
2023-02-15T18:29:23.375Z,101402.23
2023-02-15T18:31:53.885Z,101405.67
2023-02-15T18:34:25.844Z,101404.80
2023-02-15T18:36:54.466Z,101407.53
2023-02-15T18:39:38.404Z,101408.56
2023-02-15T18:42:07.936Z,101404.23
2023-02-15T18:44:36.695Z,101406.79
2023-02-15T18:47:05.481Z,101411.45
2023-02-15T18:49:34.905Z,101406.80
2023-02-15T18:52:03.254Z,101409.37
2023-02-15T18:54:32.051Z,101410.41
2023-02-15T18:57:01.459Z,101410.23
2023-02-15T18:59:31.581Z,101412.11
2023-02-15T19:02:01.330Z,101411.73
2023-02-15T19:04:30.178Z,101415.70
2023-02-15T19:07:00.272Z,101419.66
2023-02-15T19:09:29.586Z,101421.16
2023-02-15T19:11:58.188Z,101418.73
2023-02-15T19:14:32.823Z,101416.42
2023-02-15T19:17:01.734Z,101409.13
2023-02-15T19:27:24.718Z,101404.65
2023-02-15T19:29:53.414Z,101407.36
2023-02-15T19:32:21.910Z,101409.23
2023-02-15T19:34:50.168Z,101412.20
2023-02-15T19:37:35.739Z,101410.34
2023-02-15T19:40:05.454Z,101405.86
2023-02-15T19:42:34.926Z,101408.27
2023-02-15T19:45:13.280Z,101409.65
2023-02-15T19:47:42.476Z,101410.87
2023-02-15T19:50:17.406Z,101407.95
2023-02-15T19:52:46.245Z,101409.33
2023-02-15T19:55:25.549Z,101410.73
2023-02-15T19:57:55.257Z,101414.88
2023-02-15T20:00:33.889Z,101416.95
2023-02-15T20:03:01.941Z,101420.05
2023-02-15T20:05:31.186Z,101416.37
2023-02-15T20:07:59.920Z,101414.94
2023-02-15T20:10:30.249Z,101420.80
2023-02-15T20:12:58.733Z,101422.54
2023-02-15T20:15:30.832Z,101421.48
2023-02-15T20:18:01.956Z,101421.15
2023-02-15T20:20:47.944Z,101416.84
2023-02-15T20:23:25.194Z,101418.04
2023-02-15T20:25:54.929Z,101416.98
2023-02-15T20:28:25.664Z,101420.79
2023-02-15T20:30:54.096Z,101423.08
2023-02-15T20:33:23.244Z,101425.41
2023-02-15T20:35:55.218Z,101426.16
2023-02-15T20:38:31.750Z,101429.55
2023-02-15T20:41:19.207Z,101432.77
2023-02-15T20:43:49.030Z,101433.26
2023-02-15T20:46:18.758Z,101436.33
2023-02-15T20:48:47.288Z,101433.01
2023-02-15T20:51:19.184Z,101429.69
2023-02-15T20:53:48.480Z,101427.39
2023-02-15T20:56:22.001Z,101422.98
2023-02-15T20:58:53.023Z,101427.02
2023-02-15T21:01:21.871Z,101426.73
2023-02-15T21:03:50.697Z,101427.61
2023-02-15T21:06:19.176Z,101426.77
2023-02-15T21:08:55.748Z,101422.98
2023-02-15T21:11:24.334Z,101420.73
2023-02-15T21:14:17.038Z,101420.23
2023-02-15T21:16:45.788Z,101424.89
2023-02-15T21:19:21.524Z,101429.25
2023-02-15T21:21:51.622Z,101432.04
2023-02-15T21:24:24.787Z,101428.61
2023-02-15T21:26:53.312Z,101437.42
2023-02-15T21:29:26.408Z,101436.46
2023-02-15T21:31:55.834Z,101443.56
2023-02-15T21:34:24.291Z,101439.66
2023-02-15T21:36:52.891Z,101442.27
2023-02-15T21:39:22.991Z,101444.90
2023-02-15T21:42:11.574Z,101448.75
2023-02-15T21:44:59.235Z,101450.19
2023-02-15T21:47:48.754Z,101453.86
2023-02-15T21:50:37.322Z,101452.52
2023-02-15T21:53:06.404Z,101450.31
2023-02-15T21:55:37.146Z,101450.88
2023-02-15T21:58:06.847Z,101449.73
2023-02-15T22:00:36.315Z,101448.42
2023-02-15T22:03:05.040Z,101454.00
2023-02-15T22:05:35.261Z,101456.14
2023-02-15T22:08:03.869Z,101454.83
2023-02-15T22:10:32.978Z,101456.27
2023-02-15T22:13:01.710Z,101455.96
2023-02-15T22:15:37.121Z,101457.05
2023-02-15T22:18:05.675Z,101458.66
2023-02-15T22:20:34.114Z,101462.86
2023-02-15T22:23:02.574Z,101463.26
2023-02-15T22:25:31.410Z,101465.19
2023-02-15T22:28:00.134Z,101473.52
2023-02-15T22:30:36.631Z,101476.15
2023-02-15T22:33:05.349Z,101478.09
2023-02-15T22:35:34.996Z,101481.59
2023-02-15T22:38:04.157Z,101484.73
2023-02-15T22:40:33.521Z,101486.35
2023-02-15T22:43:03.283Z,101483.09
2023-02-15T22:45:32.142Z,101482.45
2023-02-15T22:48:00.377Z,101480.42
2023-02-15T22:50:31.542Z,101478.73
2023-02-15T22:53:01.074Z,101481.51
2023-02-15T22:55:34.816Z,101485.83
2023-02-15T22:58:03.400Z,101486.56
2023-02-15T23:00:35.718Z,101487.13
2023-02-15T23:03:33.897Z,101488.86
2023-02-15T23:06:02.309Z,101488.20
2023-02-15T23:08:33.011Z,101490.29
2023-02-15T23:11:02.065Z,101496.51
2023-02-15T23:13:32.682Z,101494.61
2023-02-15T23:16:02.200Z,101497.23
2023-02-15T23:24:58.066Z,101498.45
2023-02-15T23:27:45.170Z,101499.71
2023-02-15T23:30:15.450Z,101504.36
2023-02-15T23:32:43.859Z,101505.77
2023-02-15T23:35:14.530Z,101508.39
2023-02-15T23:37:42.856Z,101510.13
2023-02-15T23:40:37.773Z,101510.31
2023-02-15T23:43:06.731Z,101515.85
2023-02-15T23:45:37.822Z,101516.05
2023-02-15T23:48:39.296Z,101520.90
2023-02-15T23:51:09.820Z,101521.96
2023-02-15T23:53:38.280Z,101523.52
2023-02-15T23:56:07.937Z,101524.02
2023-02-15T23:58:38.236Z,101520.94
